San Clemente, CA (92672)

11:08 AM PDT on May 27, 2015 (GMT -0700)
North Ola Vista | | Change Station
CLOSE
Current Station
Personal Weather Station
Location: San Clemente, CA
Elevation: 200 ft
Nearby Weather Stations

Elev 200 ft 33.43 °N, 117.62 °W | Updated 4 seconds ago

Overcast
Overcast
67.3 °F
Feels Like 67.3 °F
N
6.7
Wind Variable Wind from West
Gusts 9.8 mph

Today
High -- | Low -- °F
--% Chance of Precip.
Yesterday
High -- | Low -- °F
Precip. -- in
5:43 AM 7:52 PM
Waxing Gibbous, 69% visible
Pressure 30.26 in
Visibility 8.0 miles
Clouds Overcast 2200 ft
Dew Point 58 °F
Humidity 71%
Rainfall 0.00 in
Snow Depth Not available.
UV 3 out of 12
Pollen 5.50 out of 12
Air Quality Not available.
Flu Activity Sporadic
METAR KNXF 271756Z AUTO 30009KT 8SM OVC022 18/13 A3000 RMK AO2 SLP245 T01830128 10183 20161 51007 $

More Conditions Fewer Conditions

Pressure 30.26 in
Visibility 8.0 miles
Clouds Overcast 2200 ft
Dew Point 58 °F
Humidity 71%
Rainfall 0.00 in
Snow Depth Not available.
UV 3 out of 12
Pollen 5.50 out of 12
Air Quality Not available.
Flu Activity Sporadic
METAR KNXF 271756Z AUTO 30009KT 8SM OVC022 18/13 A3000 RMK AO2 SLP245 T01830128 10183 20161 51007 $

More Conditions Fewer Conditions

10-Day Weather Forecast

Almanac

Astronomy

May. 27, 2015 Rise Set
Actual Time
Civil Twilight
Nautical Twilight
Astronomical Twilight
Moon
Length of Visible Light
Length of Day
Tomorrow will be .
, % of the Moon is Illuminated

Today's Extremes

State Highs State Lows

Community

WunderPhotos

Upload Photos

1,824,736 photos uploaded!

WunderBlogs® & News

Nearby

Air Quality

  Air Quality AQ Index Pollutant
Not available.

Snow Depth

Station Depth Elevation

Earthquake Activity

City Distance Mag. Time & Date
Minimum magnitude displayed is 2.5.

Coastal Water Temperatures

Place Temperature

Stations

Nearby Weather Stations

Station Location Temp. Windchill Dew Point Humidity Wind Precip. Elev Updated Type